Eccles, West Virginia
Current Conditions -  °F | °C
As of 1:00 AM on Thursday 23 Oct 2014 (Local Time) from KBKW Reporting Station
Overcast Overcast  
Wind Chill: 38°   Ceiling: 1200
Heat Index: 42°   Visibility: 10mi
Dew Point: 39°   Wind: 7mph
Humidity: 89%   Direction: 330°NNW
Pressure: 30.15"   Gusts: NA
Location:  37.79°N, 81.27°W
Report Text: KBKW 230500Z AUTO 33006KT 10SM SCT008 OVC012 06/04 A3015 RMK AO2 T00560039 TSNO
Loading
Personal Weather Stations






























Interactive Weather Map
Tropical Storm Tracking
New forecast layout! Learn more

10-Day Weather Forecast

Advertisements
Track Severe Weather on mobile